Time;durP1;ratioP1;P1;durP2;ratioP2;P2;SDS_P1;SDS_P2;PMS_P1;PMS_P2;Temp;Humidity;BMP_temperature;BMP_pressure;BME280_temperature;BME280_humidity;BME280_pressure;Samples;Min_cycle;Max_cycle;Signal;HPM_P1;HPM_P2
2023/08/16 00:01:54;;;;;;;5.93;4.07;;;;;;;;;;5036738;28;20029;-79
2023/08/16 00:04:19;;;;;;;6.10;4.13;;;;;;;;;;5035941;28;20022;-79
2023/08/16 00:06:44;;;;;;;4.83;3.60;;;;;;;;;;5036512;28;20280;-79
2023/08/16 00:09:09;;;;;;;4.87;3.37;;;;;;;;;;5027411;28;20280;-79
2023/08/16 00:11:35;;;;;;;7.28;4.35;;;;;;;;;;5021003;28;20298;-79
2023/08/16 00:14:00;;;;;;;4.20;3.53;;;;;;;;;;5005647;28;20030;-79
2023/08/16 00:16:25;;;;;;;5.63;3.83;;;;;;;;;;5039881;28;20279;-79
2023/08/16 00:18:50;;;;;;;4.60;3.00;;;;;;;;;;5028616;28;20268;-79
2023/08/16 00:21:15;;;;;;;4.40;3.10;;;;;;;;;;5019235;28;20037;-79
2023/08/16 00:23:41;;;;;;;5.68;3.25;;;;;;;;;;5041870;28;20285;-79
2023/08/16 00:26:06;;;;;;;5.70;3.60;;;;;;;;;;5024914;28;20033;-79
2023/08/16 00:28:31;;;;;;;5.50;3.35;;;;;;;;;;5029475;28;20335;-78
2023/08/16 00:30:56;;;;;;;5.47;3.03;;;;;;;;;;5016431;28;20038;-78
2023/08/16 00:33:21;;;;;;;3.77;2.97;;;;;;;;;;5017080;28;20272;-79
2023/08/16 00:35:47;;;;;;;5.07;3.20;;;;;;;;;;5018536;28;20330;-79
2023/08/16 00:38:12;;;;;;;4.80;3.00;;;;;;;;;;5038414;28;20040;-79
2023/08/16 00:40:37;;;;;;;6.57;3.17;;;;;;;;;;5019517;28;20088;-79
2023/08/16 00:43:03;;;;;;;6.68;3.58;;;;;;;;;;5028383;28;20046;-79
2023/08/16 00:45:29;;;;;;;8.32;3.85;;;;;;;;;;5030104;28;20327;-79
2023/08/16 00:47:54;;;;;;;4.85;3.42;;;;;;;;;;5019392;28;20056;-79
2023/08/16 00:50:23;;;;;;;5.78;3.42;;;;;;;;;;5020812;28;20112;-79
2023/08/16 00:52:49;;;;;;;5.63;2.83;;;;;;;;;;5018448;28;20038;-79
2023/08/16 00:55:14;;;;;;;3.88;2.78;;;;;;;;;;5022998;28;20052;-79
2023/08/16 00:57:40;;;;;;;5.35;2.63;;;;;;;;;;5018544;28;20030;-79
2023/08/16 01:00:05;;;;;;;7.00;3.70;;;;;;;;;;5021915;28;20033;-79
2023/08/16 01:02:30;;;;;;;3.78;2.58;;;;;;;;;;5029294;28;20033;-79
2023/08/16 01:04:56;;;;;;;4.77;2.90;;;;;;;;;;5017488;28;20026;-79
2023/08/16 01:07:21;;;;;;;4.82;2.85;;;;;;;;;;5022756;28;20333;-79
2023/08/16 01:09:46;;;;;;;4.72;2.88;;;;;;;;;;5020904;28;20044;-79
2023/08/16 01:12:15;;;;;;;4.00;2.90;;;;;;;;;;5046844;28;20081;-79
2023/08/16 01:14:46;;;;;;;3.67;2.70;;;;;;;;;;5039143;28;20048;-79
2023/08/16 01:17:12;;;;;;;4.88;2.85;;;;;;;;;;5022598;28;20030;-79
2023/08/16 01:19:38;;;;;;;4.10;2.97;;;;;;;;;;5037371;28;20032;-80
2023/08/16 01:22:22;;;;;;;5.10;2.85;;;;;;;;;;5037772;28;20029;-79
2023/08/16 01:25:10;;;;;;;4.95;3.50;;;;;;;;;;5018980;28;20030;-80
2023/08/16 01:27:35;;;;;;;8.30;3.28;;;;;;;;;;5021724;28;20037;-79
2023/08/16 01:30:08;;;;;;;5.10;2.70;;;;;;;;;;5035446;28;20097;-79
2023/08/16 01:32:33;;;;;;;4.82;2.88;;;;;;;;;;5020865;28;20129;-79
2023/08/16 01:34:58;;;;;;;4.00;2.80;;;;;;;;;;5038181;28;20049;-79
2023/08/16 01:37:24;;;;;;;7.60;3.28;;;;;;;;;;5018990;28;20062;-79
2023/08/16 01:39:50;;;;;;;4.32;2.70;;;;;;;;;;5036544;28;20450;-80
2023/08/16 01:42:17;;;;;;;4.10;2.72;;;;;;;;;;5023387;28;20056;-80
2023/08/16 01:44:44;;;;;;;4.10;2.47;;;;;;;;;;5019760;28;20025;-80
2023/08/16 01:47:11;;;;;;;4.10;2.65;;;;;;;;;;5025470;28;20033;-80
2023/08/16 01:49:37;;;;;;;5.15;3.15;;;;;;;;;;5020967;28;20116;-79
2023/08/16 01:52:02;;;;;;;5.80;2.80;;;;;;;;;;5035695;28;20037;-79
2023/08/16 01:54:27;;;;;;;6.50;2.65;;;;;;;;;;5040748;28;20229;-79
2023/08/16 01:56:52;;;;;;;4.30;2.78;;;;;;;;;;5035623;28;20026;-79
2023/08/16 01:59:18;;;;;;;3.95;2.22;;;;;;;;;;5017901;28;20532;-80
2023/08/16 02:01:43;;;;;;;4.53;3.00;;;;;;;;;;5020892;28;20060;-79
2023/08/16 02:04:08;;;;;;;4.60;2.70;;;;;;;;;;5019261;28;20046;-80
2023/08/16 02:06:33;;;;;;;5.25;2.75;;;;;;;;;;5024313;28;20041;-79
2023/08/16 02:08:58;;;;;;;3.42;2.38;;;;;;;;;;5024101;28;20612;-80
2023/08/16 02:11:24;;;;;;;4.40;2.78;;;;;;;;;;5027700;28;20034;-80
2023/08/16 02:13:52;;;;;;;6.57;2.90;;;;;;;;;;5035405;28;20026;-80
2023/08/16 02:16:23;;;;;;;;;;;;;;;;;;5024757;28;20029;-80
2023/08/16 02:18:48;;;;;;;5.28;2.65;;;;;;;;;;5025990;28;19913;-81
2023/08/16 02:21:13;;;;;;;7.32;3.28;;;;;;;;;;5040620;28;20041;-81
2023/08/16 02:23:39;;;;;;;4.87;3.93;;;;;;;;;;5034562;28;20044;-81
2023/08/16 02:26:04;;;;;;;6.43;3.40;;;;;;;;;;5023013;28;20271;-82
2023/08/16 02:28:30;;;;;;;4.70;2.60;;;;;;;;;;5028159;28;20377;-81
2023/08/16 02:31:02;;;;;;;5.00;3.80;;;;;;;;;;5042137;28;20036;-81
2023/08/16 02:33:27;;;;;;;4.22;2.85;;;;;;;;;;5028631;28;20033;-81
2023/08/16 02:35:53;;;;;;;5.25;3.08;;;;;;;;;;5043143;28;20029;-81
2023/08/16 02:38:18;;;;;;;5.55;3.10;;;;;;;;;;5024688;28;20089;-81
2023/08/16 02:40:43;;;;;;;5.60;4.28;;;;;;;;;;5024864;28;20037;-80
2023/08/16 02:43:10;;;;;;;4.50;2.72;;;;;;;;;;5012901;28;20037;-81
2023/08/16 02:45:35;;;;;;;4.27;2.80;;;;;;;;;;5044859;28;20060;-80
2023/08/16 02:48:01;;;;;;;5.73;4.40;;;;;;;;;;5041937;28;20284;-80
2023/08/16 02:50:27;;;;;;;5.55;3.90;;;;;;;;;;5041101;28;20299;-80
2023/08/16 02:52:52;;;;;;;5.30;3.72;;;;;;;;;;5041237;28;20038;-81
2023/08/16 02:55:17;;;;;;;5.00;3.20;;;;;;;;;;5023155;28;20096;-80
2023/08/16 02:57:42;;;;;;;6.97;3.97;;;;;;;;;;5025401;28;20037;-80
2023/08/16 03:00:09;;;;;;;5.70;4.18;;;;;;;;;;5025509;28;20094;-80
2023/08/16 03:02:34;;;;;;;4.80;3.28;;;;;;;;;;5024915;28;20034;-80
2023/08/16 03:05:00;;;;;;;8.00;4.50;;;;;;;;;;5024764;28;20045;-80
2023/08/16 03:07:25;;;;;;;6.20;4.60;;;;;;;;;;5043758;28;20033;-80
2023/08/16 03:09:50;;;;;;;6.07;4.10;;;;;;;;;;5022982;28;20080;-80
2023/08/16 03:12:15;;;;;;;5.30;4.18;;;;;;;;;;5045872;28;20323;-80
2023/08/16 03:14:42;;;;;;;6.07;4.75;;;;;;;;;;5048167;28;20081;-81
2023/08/16 03:17:07;;;;;;;5.63;3.57;;;;;;;;;;5015368;28;20029;-80
2023/08/16 03:19:33;;;;;;;7.40;4.05;;;;;;;;;;5026435;28;20391;-81
2023/08/16 03:21:58;;;;;;;7.22;4.57;;;;;;;;;;5024883;28;20045;-81
2023/08/16 03:24:26;;;;;;;6.80;3.90;;;;;;;;;;5029894;28;20061;-81
2023/08/16 03:26:52;;;;;;;5.95;4.57;;;;;;;;;;5044526;28;20047;-82
2023/08/16 03:29:18;;;;;;;7.75;4.30;;;;;;;;;;5048343;28;20113;-81
2023/08/16 03:31:44;;;;;;;6.82;3.80;;;;;;;;;;5044655;28;20030;-81
2023/08/16 03:34:09;;;;;;;4.90;3.90;;;;;;;;;;5026918;28;20081;-81
2023/08/16 03:36:35;;;;;;;7.57;4.22;;;;;;;;;;5027001;28;20029;-81
2023/08/16 03:39:05;;;;;;;7.47;4.38;;;;;;;;;;5026071;28;20017;-79
2023/08/16 03:41:30;;;;;;;6.00;3.97;;;;;;;;;;5040868;28;20056;-80
2023/08/16 03:43:56;;;;;;;6.43;5.07;;;;;;;;;;5039280;28;20029;-80
2023/08/16 03:46:21;;;;;;;6.57;4.82;;;;;;;;;;5004402;28;20052;-80
2023/08/16 03:48:46;;;;;;;5.47;4.10;;;;;;;;;;5023712;28;20056;-81
2023/08/16 03:51:11;;;;;;;8.27;4.53;;;;;;;;;;5023477;28;20101;-80
2023/08/16 03:53:37;;;;;;;7.85;4.60;;;;;;;;;;5024218;28;20304;-80
2023/08/16 03:56:02;;;;;;;6.15;4.63;;;;;;;;;;5023433;28;20029;-80
2023/08/16 03:58:27;;;;;;;7.28;5.22;;;;;;;;;;5040600;28;20030;-80
2023/08/16 04:00:53;;;;;;;10.35;5.20;;;;;;;;;;5021456;28;20026;-80
2023/08/16 04:03:18;;;;;;;6.38;5.13;;;;;;;;;;5028371;28;20025;-80
2023/08/16 04:05:43;;;;;;;7.43;5.95;;;;;;;;;;5031281;28;20088;-81
2023/08/16 04:08:09;;;;;;;8.07;5.43;;;;;;;;;;5044073;28;20066;-80
2023/08/16 04:10:35;;;;;;;7.22;6.00;;;;;;;;;;5024323;28;20048;-79
2023/08/16 04:13:00;;;;;;;7.95;5.47;;;;;;;;;;5023609;28;20026;-80
2023/08/16 04:15:25;;;;;;;7.53;5.00;;;;;;;;;;5004653;28;20038;-80
2023/08/16 04:17:51;;;;;;;8.80;7.05;;;;;;;;;;5024730;28;20048;-80
2023/08/16 04:20:16;;;;;;;8.23;6.72;;;;;;;;;;5018654;28;20029;-79
2023/08/16 04:22:41;;;;;;;8.00;5.97;;;;;;;;;;5027662;28;20051;-79
2023/08/16 04:25:08;;;;;;;8.25;6.05;;;;;;;;;;5029329;28;20032;-80
2023/08/16 04:27:33;;;;;;;6.55;5.72;;;;;;;;;;5029240;28;20037;-80
2023/08/16 04:30:00;;;;;;;8.65;6.70;;;;;;;;;;5028800;28;20049;-80
2023/08/16 04:32:25;;;;;;;7.75;6.40;;;;;;;;;;5029269;28;20025;-80
2023/08/16 04:34:50;;;;;;;6.82;5.57;;;;;;;;;;5029456;28;20396;-80
2023/08/16 04:37:16;;;;;;;8.50;6.30;;;;;;;;;;5029578;28;20017;-80
2023/08/16 04:39:41;;;;;;;9.15;6.68;;;;;;;;;;5017250;28;20026;-80
2023/08/16 04:42:06;;;;;;;8.52;6.55;;;;;;;;;;5022307;28;20034;-80
2023/08/16 04:44:32;;;;;;;7.40;4.72;;;;;;;;;;5027234;28;20040;-80
2023/08/16 04:46:57;;;;;;;8.85;6.97;;;;;;;;;;5037525;28;20033;-81
2023/08/16 04:49:25;;;;;;;7.28;5.90;;;;;;;;;;5016704;28;20168;-81
2023/08/16 04:51:50;;;;;;;11.63;5.65;;;;;;;;;;5037472;28;20026;-81
2023/08/16 04:54:15;;;;;;;9.52;5.85;;;;;;;;;;5023372;28;20041;-81
2023/08/16 04:56:41;;;;;;;7.70;5.90;;;;;;;;;;5036333;28;20093;-81
2023/08/16 04:59:06;;;;;;;7.00;5.85;;;;;;;;;;5040994;28;20037;-82
2023/08/16 05:01:32;;;;;;;6.43;4.70;;;;;;;;;;5023582;28;20033;-81
2023/08/16 05:03:59;;;;;;;7.18;5.03;;;;;;;;;;5029743;28;20022;-81
2023/08/16 05:06:25;;;;;;;7.47;6.05;;;;;;;;;;5018511;28;20041;-81
2023/08/16 05:08:50;;;;;;;8.43;5.60;;;;;;;;;;5020465;28;20033;-81
2023/08/16 05:11:17;;;;;;;7.15;5.18;;;;;;;;;;5018469;28;20084;-81
2023/08/16 05:13:42;;;;;;;5.88;4.75;;;;;;;;;;5022501;28;20034;-81
2023/08/16 05:16:07;;;;;;;7.72;5.50;;;;;;;;;;5026713;28;20026;-81
2023/08/16 05:18:34;;;;;;;8.25;5.05;;;;;;;;;;5021470;28;20036;-81
2023/08/16 05:21:00;;;;;;;7.97;5.88;;;;;;;;;;5004411;28;20420;-81
2023/08/16 05:23:26;;;;;;;8.27;5.95;;;;;;;;;;5021339;28;20040;-81
2023/08/16 05:25:51;;;;;;;7.53;5.47;;;;;;;;;;5042403;28;20025;-81
2023/08/16 05:28:16;;;;;;;7.68;6.15;;;;;;;;;;5040805;28;20025;-80
2023/08/16 05:30:41;;;;;;;6.50;5.23;;;;;;;;;;5039844;28;20033;-81
2023/08/16 05:33:07;;;;;;;7.50;6.33;;;;;;;;;;5037083;28;20693;-81
2023/08/16 05:35:33;;;;;;;7.00;5.10;;;;;;;;;;5040551;28;20275;-81
2023/08/16 05:37:58;;;;;;;7.40;5.80;;;;;;;;;;5037028;28;20026;-81
2023/08/16 05:40:23;;;;;;;6.78;4.97;;;;;;;;;;5037619;28;20026;-81
2023/08/16 05:42:49;;;;;;;8.10;5.80;;;;;;;;;;5045346;28;20030;-80
2023/08/16 05:45:14;;;;;;;7.47;4.90;;;;;;;;;;5043779;28;20284;-81
2023/08/16 05:47:39;;;;;;;7.93;5.50;;;;;;;;;;5039234;28;20049;-81
2023/08/16 05:50:05;;;;;;;6.68;5.38;;;;;;;;;;5037712;28;20057;-81
2023/08/16 05:52:31;;;;;;;6.82;5.32;;;;;;;;;;5039522;28;20098;-81
2023/08/16 05:54:56;;;;;;;11.63;5.88;;;;;;;;;;5040241;28;20104;-81
2023/08/16 05:57:21;;;;;;;7.73;5.17;;;;;;;;;;5043971;28;20021;-81
2023/08/16 05:59:46;;;;;;;8.57;6.03;;;;;;;;;;5038666;28;20288;-81
2023/08/16 06:02:11;;;;;;;6.60;4.90;;;;;;;;;;5040101;28;20083;-81
2023/08/16 06:04:37;;;;;;;6.23;4.90;;;;;;;;;;5036861;28;20276;-81
2023/08/16 06:07:02;;;;;;;9.55;5.65;;;;;;;;;;5040653;28;20323;-81
2023/08/16 06:09:28;;;;;;;7.93;5.70;;;;;;;;;;5039413;28;20037;-81
2023/08/16 06:11:53;;;;;;;5.60;4.65;;;;;;;;;;5041073;28;20385;-81
2023/08/16 06:14:18;;;;;;;6.75;5.13;;;;;;;;;;5019741;28;20164;-81
2023/08/16 06:16:44;;;;;;;6.67;5.23;;;;;;;;;;5039352;28;20029;-81
2023/08/16 06:19:10;;;;;;;7.25;4.00;;;;;;;;;;5038543;28;20272;-81
2023/08/16 06:21:35;;;;;;;6.05;4.40;;;;;;;;;;5038325;28;20034;-81
2023/08/16 06:24:01;;;;;;;6.63;5.15;;;;;;;;;;5039038;28;20037;-81
2023/08/16 06:26:26;;;;;;;5.70;4.68;;;;;;;;;;5039142;28;20022;-81
2023/08/16 06:28:51;;;;;;;7.20;5.27;;;;;;;;;;5038513;28;20037;-82
2023/08/16 06:31:17;;;;;;;6.47;4.65;;;;;;;;;;5036365;28;20292;-82
2023/08/16 06:33:42;;;;;;;13.35;4.88;;;;;;;;;;5035549;28;20081;-82
2023/08/16 06:36:07;;;;;;;5.68;4.20;;;;;;;;;;5039440;28;20006;-81
2023/08/16 06:38:32;;;;;;;7.67;4.93;;;;;;;;;;5039520;28;20117;-82
2023/08/16 06:40:57;;;;;;;5.53;4.22;;;;;;;;;;5039443;28;20819;-81
2023/08/16 06:43:23;;;;;;;6.13;4.57;;;;;;;;;;5040363;28;20453;-81
2023/08/16 06:45:48;;;;;;;7.85;4.45;;;;;;;;;;5041458;28;20275;-81
2023/08/16 06:48:14;;;;;;;6.88;4.70;;;;;;;;;;5036199;28;20026;-81
2023/08/16 06:50:39;;;;;;;6.30;3.95;;;;;;;;;;5040897;28;20051;-81
2023/08/16 06:53:04;;;;;;;6.03;4.25;;;;;;;;;;5040484;28;20093;-81
2023/08/16 06:55:30;;;;;;;4.80;3.85;;;;;;;;;;5044059;28;20321;-81
2023/08/16 06:57:55;;;;;;;7.15;4.43;;;;;;;;;;5043275;28;20038;-81
2023/08/16 07:00:21;;;;;;;6.63;4.45;;;;;;;;;;5025511;28;20033;-81
2023/08/16 07:02:46;;;;;;;6.18;4.75;;;;;;;;;;5025233;28;20030;-81
2023/08/16 07:05:12;;;;;;;7.93;5.03;;;;;;;;;;5022552;28;20041;-81
2023/08/16 07:07:37;;;;;;;6.45;4.82;;;;;;;;;;5043650;28;20113;-82
2023/08/16 07:10:03;;;;;;;6.03;4.57;;;;;;;;;;5042012;28;20038;-81
2023/08/16 07:12:29;;;;;;;5.25;4.32;;;;;;;;;;5043767;28;20038;-81
2023/08/16 07:14:54;;;;;;;7.03;4.77;;;;;;;;;;5042687;28;20061;-81
2023/08/16 07:17:19;;;;;;;6.32;4.47;;;;;;;;;;5042258;28;20265;-81
2023/08/16 07:19:48;;;;;;;6.20;4.88;;;;;;;;;;5040206;28;20018;-81
2023/08/16 07:22:13;;;;;;;6.82;5.88;;;;;;;;;;5043453;28;20044;-82
2023/08/16 07:24:38;;;;;;;6.22;4.60;;;;;;;;;;5041289;28;20053;-81
2023/08/16 07:27:03;;;;;;;7.60;4.95;;;;;;;;;;5021595;28;20046;-81
2023/08/16 07:29:29;;;;;;;6.03;4.67;;;;;;;;;;5024590;28;20033;-82
2023/08/16 07:31:54;;;;;;;9.07;5.40;;;;;;;;;;5044941;28;20314;-81
2023/08/16 07:34:19;;;;;;;7.95;5.07;;;;;;;;;;5047422;28;20279;-81
2023/08/16 07:36:45;;;;;;;7.53;5.07;;;;;;;;;;5043987;28;20056;-81
2023/08/16 07:39:11;;;;;;;7.35;5.15;;;;;;;;;;5044002;28;20040;-82
2023/08/16 07:41:36;;;;;;;5.32;4.30;;;;;;;;;;5025819;28;20038;-81
2023/08/16 07:44:01;;;;;;;6.68;5.15;;;;;;;;;;5042479;28;20040;-81
2023/08/16 07:46:27;;;;;;;7.88;5.65;;;;;;;;;;5042058;28;20121;-81
2023/08/16 07:48:52;;;;;;;6.77;5.00;;;;;;;;;;5037433;28;20033;-82
2023/08/16 07:51:17;;;;;;;9.40;6.77;;;;;;;;;;5040372;28;20295;-81
2023/08/16 07:53:42;;;;;;;5.93;4.47;;;;;;;;;;5020504;28;20300;-81
2023/08/16 07:56:07;;;;;;;6.80;4.83;;;;;;;;;;5039181;28;20301;-81
2023/08/16 07:58:33;;;;;;;4.88;4.18;;;;;;;;;;5040874;28;20288;-82
2023/08/16 08:00:58;;;;;;;5.88;4.40;;;;;;;;;;5041045;28;20025;-82
2023/08/16 08:03:23;;;;;;;8.73;4.93;;;;;;;;;;5020421;28;20030;-82
2023/08/16 08:05:48;;;;;;;6.97;4.80;;;;;;;;;;5042997;28;20275;-81
2023/08/16 08:08:14;;;;;;;6.38;4.80;;;;;;;;;;5005065;28;20026;-82
2023/08/16 08:10:45;;;;;;;6.53;4.82;;;;;;;;;;5023312;28;20504;-81
2023/08/16 08:13:11;;;;;;;8.30;4.60;;;;;;;;;;5048486;28;20037;-81
2023/08/16 08:15:36;;;;;;;5.40;4.28;;;;;;;;;;5041261;28;20032;-81
2023/08/16 08:18:02;;;;;;;6.60;4.13;;;;;;;;;;5038719;28;20085;-81
2023/08/16 08:20:27;;;;;;;7.78;5.15;;;;;;;;;;5045518;28;20033;-81
2023/08/16 08:22:52;;;;;;;6.53;4.68;;;;;;;;;;5043390;28;20025;-82
2023/08/16 08:25:18;;;;;;;5.90;4.65;;;;;;;;;;5032251;28;20072;-81
2023/08/16 08:27:43;;;;;;;7.78;5.35;;;;;;;;;;5042249;28;20044;-82
2023/08/16 08:30:09;;;;;;;5.75;4.80;;;;;;;;;;5042957;28;20057;-81
2023/08/16 08:32:34;;;;;;;5.78;4.60;;;;;;;;;;5042267;28;20020;-82
2023/08/16 08:34:59;;;;;;;6.50;4.75;;;;;;;;;;5025429;28;20056;-81
2023/08/16 08:37:25;;;;;;;6.15;4.40;;;;;;;;;;5042164;28;20066;-81
2023/08/16 08:39:50;;;;;;;7.15;4.95;;;;;;;;;;5040337;28;20044;-81
2023/08/16 08:42:16;;;;;;;7.47;4.47;;;;;;;;;;5044278;28;20033;-81
2023/08/16 08:44:42;;;;;;;6.75;4.50;;;;;;;;;;5039641;28;20037;-81
2023/08/16 08:47:09;;;;;;;6.97;4.63;;;;;;;;;;5030564;28;20052;-82
2023/08/16 08:49:37;;;;;;;8.93;4.90;;;;;;;;;;5039221;28;20042;-81
2023/08/16 08:52:03;;;;;;;6.55;5.10;;;;;;;;;;5040777;28;20032;-81
2023/08/16 08:54:28;;;;;;;5.97;4.57;;;;;;;;;;5030117;28;20034;-81
2023/08/16 08:56:54;;;;;;;6.72;4.60;;;;;;;;;;5040160;28;20033;-82
2023/08/16 08:59:20;;;;;;;6.07;4.40;;;;;;;;;;5041021;28;20033;-82
2023/08/16 09:01:46;;;;;;;6.88;4.30;;;;;;;;;;5040755;28;20056;-81
2023/08/16 09:04:12;;;;;;;5.18;4.03;;;;;;;;;;5041039;28;20041;-81
2023/08/16 09:06:38;;;;;;;6.63;4.60;;;;;;;;;;5041602;28;20048;-81
2023/08/16 09:09:04;;;;;;;7.75;4.70;;;;;;;;;;5040379;28;20034;-82
2023/08/16 09:11:30;;;;;;;7.25;4.63;;;;;;;;;;5044053;28;20026;-81
2023/08/16 09:13:55;;;;;;;5.53;4.35;;;;;;;;;;5032584;28;20503;-81
2023/08/16 09:16:20;;;;;;;7.30;3.90;;;;;;;;;;5038094;28;20058;-81
2023/08/16 09:18:47;;;;;;;6.22;4.07;;;;;;;;;;5041087;28;20034;-82
2023/08/16 09:21:14;;;;;;;7.00;3.95;;;;;;;;;;5044522;28;20039;-81
2023/08/16 09:23:39;;;;;;;5.25;3.50;;;;;;;;;;5043688;28;20037;-81
2023/08/16 09:26:12;;;;;;;6.13;4.20;;;;;;;;;;5041589;28;20022;-81
2023/08/16 09:28:37;;;;;;;5.65;3.70;;;;;;;;;;5040029;28;20029;-81
2023/08/16 09:31:06;;;;;;;5.60;3.85;;;;;;;;;;5039688;28;20052;-81
2023/08/16 09:33:33;;;;;;;5.53;3.67;;;;;;;;;;5030392;28;20085;-81
2023/08/16 09:35:58;;;;;;;6.50;3.70;;;;;;;;;;5040192;28;20036;-81
2023/08/16 09:38:24;;;;;;;4.78;3.60;;;;;;;;;;5042641;28;20029;-81
2023/08/16 09:40:50;;;;;;;6.13;3.60;;;;;;;;;;5024320;28;20089;-81
2023/08/16 09:43:15;;;;;;;4.43;3.47;;;;;;;;;;5042689;28;20052;-81
2023/08/16 09:45:41;;;;;;;6.60;3.60;;;;;;;;;;5040777;28;20089;-81
2023/08/16 09:48:08;;;;;;;5.78;3.55;;;;;;;;;;5031624;28;20258;-81
2023/08/16 09:50:34;;;;;;;6.30;3.80;;;;;;;;;;5040716;28;20041;-81
2023/08/16 09:53:01;;;;;;;4.43;3.13;;;;;;;;;;5037802;28;20037;-79
2023/08/16 09:55:28;;;;;;;4.97;3.15;;;;;;;;;;5043342;28;20025;-81
2023/08/16 09:57:55;;;;;;;7.00;3.85;;;;;;;;;;5030606;28;20034;-81
2023/08/16 10:00:20;;;;;;;5.40;3.65;;;;;;;;;;5040005;28;20357;-82
2023/08/16 10:02:48;;;;;;;4.93;3.42;;;;;;;;;;5039921;28;20064;-81
2023/08/16 10:05:16;;;;;;;5.97;3.42;;;;;;;;;;5041847;28;20029;-81
2023/08/16 10:07:41;;;;;;;5.55;2.75;;;;;;;;;;5043834;28;20053;-82
2023/08/16 10:10:09;;;;;;;4.40;2.42;;;;;;;;;;5037031;28;20451;-81
2023/08/16 10:12:35;;;;;;;4.32;2.72;;;;;;;;;;5026442;28;20437;-82
2023/08/16 10:15:00;;;;;;;3.92;2.83;;;;;;;;;;5036596;28;20053;-82
2023/08/16 10:17:27;;;;;;;4.15;2.65;;;;;;;;;;5035942;28;20041;-82
2023/08/16 10:19:57;;;;;;;5.93;2.88;;;;;;;;;;5033248;28;20686;-79
2023/08/16 10:22:23;;;;;;;5.30;3.08;;;;;;;;;;5034962;28;20089;-79
2023/08/16 10:24:50;;;;;;;3.55;2.10;;;;;;;;;;5035172;28;20037;-78
2023/08/16 10:27:15;;;;;;;5.85;4.60;;;;;;;;;;5030028;28;20033;-79
2023/08/16 10:29:42;;;;;;;5.72;2.95;;;;;;;;;;5036578;28;20496;-79
2023/08/16 10:32:09;;;;;;;5.90;4.32;;;;;;;;;;5033353;28;20091;-78
2023/08/16 10:34:35;;;;;;;5.50;2.63;;;;;;;;;;5028119;28;20030;-78
2023/08/16 10:37:00;;;;;;;4.95;3.03;;;;;;;;;;5031389;28;20076;-78
2023/08/16 10:39:25;;;;;;;3.40;2.25;;;;;;;;;;5030080;28;20048;-78
2023/08/16 10:42:01;;;;;;;4.23;3.07;;;;;;;;;;5031867;28;20484;-78
2023/08/16 10:44:26;;;;;;;3.92;2.65;;;;;;;;;;5028721;28;20366;-79
2023/08/16 10:46:51;;;;;;;3.90;2.60;;;;;;;;;;5032780;28;20025;-79
2023/08/16 10:49:18;;;;;;;5.83;3.80;;;;;;;;;;5037604;28;20864;-78
2023/08/16 10:51:46;;;;;;;4.75;3.05;;;;;;;;;;5027797;28;20328;-79
2023/08/16 10:54:12;;;;;;;4.20;3.05;;;;;;;;;;5021655;28;20040;-78
2023/08/16 10:56:44;;;;;;;6.45;4.15;;;;;;;;;;5037151;28;20089;-79
2023/08/16 10:59:09;;;;;;;4.53;2.30;;;;;;;;;;5038004;28;20033;-78
2023/08/16 11:01:34;;;;;;;5.22;4.28;;;;;;;;;;5029797;28;20038;-78
2023/08/16 11:04:00;;;;;;;5.67;5.07;;;;;;;;;;5037762;28;20026;-78
2023/08/16 11:06:25;;;;;;;4.38;3.30;;;;;;;;;;5016775;28;20037;-78
2023/08/16 11:08:50;;;;;;;4.83;3.73;;;;;;;;;;5033862;28;20022;-79
2023/08/16 11:11:16;;;;;;;5.33;3.73;;;;;;;;;;5032821;28;20029;-78
2023/08/16 11:13:42;;;;;;;4.20;3.30;;;;;;;;;;5035014;28;20743;-79
2023/08/16 11:16:09;;;;;;;4.85;2.80;;;;;;;;;;5013813;28;20033;-78
2023/08/16 11:18:35;;;;;;;5.57;2.60;;;;;;;;;;5031639;28;20025;-78
2023/08/16 11:21:01;;;;;;;3.20;2.30;;;;;;;;;;5015920;28;20109;-78
2023/08/16 11:23:33;;;;;;;4.15;2.33;;;;;;;;;;5033870;28;20053;-78
2023/08/16 11:26:02;;;;;;;3.42;2.75;;;;;;;;;;5041134;28;20147;-78
2023/08/16 11:28:31;;;;;;;3.47;2.42;;;;;;;;;;5025343;28;20124;-78
2023/08/16 11:31:00;;;;;;;2.97;1.92;;;;;;;;;;5038919;28;20068;-78
2023/08/16 11:33:32;;;;;;;3.70;2.60;;;;;;;;;;5032313;28;20373;-79
2023/08/16 11:35:59;;;;;;;3.92;3.10;;;;;;;;;;5034103;28;20040;-78
2023/08/16 11:38:24;;;;;;;4.97;2.85;;;;;;;;;;5028477;28;20025;-77
2023/08/16 11:40:50;;;;;;;4.80;3.87;;;;;;;;;;5038897;28;20424;-78
2023/08/16 11:43:16;;;;;;;6.18;3.70;;;;;;;;;;5037364;28;20269;-78
2023/08/16 11:45:41;;;;;;;4.43;3.10;;;;;;;;;;5033352;28;20029;-78
2023/08/16 11:48:09;;;;;;;5.03;3.33;;;;;;;;;;5034118;28;20044;-78
2023/08/16 11:50:34;;;;;;;4.80;3.15;;;;;;;;;;5033791;28;20487;-79
2023/08/16 11:53:00;;;;;;;3.95;2.75;;;;;;;;;;5033815;28;20029;-79
2023/08/16 11:55:29;;;;;;;4.55;3.30;;;;;;;;;;5032831;28;20064;-79
2023/08/16 11:57:54;;;;;;;5.38;3.13;;;;;;;;;;5033755;28;20492;-79
2023/08/16 12:00:26;;;;;;;3.63;2.67;;;;;;;;;;5035895;28;20057;-79
2023/08/16 12:02:51;;;;;;;4.55;2.30;;;;;;;;;;5030485;28;20279;-78
2023/08/16 12:05:17;;;;;;;4.53;2.50;;;;;;;;;;5031193;28;20048;-78
2023/08/16 12:07:43;;;;;;;3.92;2.60;;;;;;;;;;5032682;28;20042;-78
2023/08/16 12:10:08;;;;;;;3.65;2.58;;;;;;;;;;5034539;28;20091;-78
2023/08/16 12:12:33;;;;;;;7.63;2.63;;;;;;;;;;5034704;28;20042;-78
2023/08/16 12:14:59;;;;;;;3.60;2.65;;;;;;;;;;5033248;28;20034;-79
2023/08/16 12:17:24;;;;;;;5.47;2.93;;;;;;;;;;5032515;28;20053;-78
2023/08/16 12:19:50;;;;;;;5.43;4.00;;;;;;;;;;5031732;28;20778;-79
2023/08/16 12:22:15;;;;;;;6.73;5.00;;;;;;;;;;5036030;28;20038;-79
2023/08/16 12:24:40;;;;;;;4.03;2.63;;;;;;;;;;5029732;28;20041;-78
2023/08/16 12:27:05;;;;;;;3.57;2.53;;;;;;;;;;5032514;28;20105;-78
2023/08/16 12:29:31;;;;;;;3.80;2.72;;;;;;;;;;5031572;28;20455;-78
2023/08/16 12:31:56;;;;;;;3.97;2.77;;;;;;;;;;5032697;28;20032;-78
2023/08/16 12:34:21;;;;;;;3.80;2.57;;;;;;;;;;5014893;28;20477;-78
2023/08/16 12:36:47;;;;;;;3.92;2.95;;;;;;;;;;5035673;28;20034;-78
2023/08/16 12:39:12;;;;;;;5.07;2.95;;;;;;;;;;5032111;28;20029;-79
2023/08/16 12:41:37;;;;;;;5.43;2.88;;;;;;;;;;5033260;28;20029;-79
2023/08/16 12:44:03;;;;;;;5.90;2.50;;;;;;;;;;5032456;28;20029;-78
2023/08/16 12:46:29;;;;;;;3.70;2.67;;;;;;;;;;5031753;28;20331;-78
2023/08/16 12:48:54;;;;;;;4.97;3.83;;;;;;;;;;5029697;28;20038;-78
2023/08/16 12:51:19;;;;;;;9.40;3.13;;;;;;;;;;5028128;28;20038;-79
2023/08/16 12:53:45;;;;;;;4.33;3.10;;;;;;;;;;5030789;28;20026;-78
2023/08/16 12:56:10;;;;;;;4.18;3.20;;;;;;;;;;5028088;28;20037;-78
2023/08/16 12:58:35;;;;;;;5.50;3.87;;;;;;;;;;5029525;28;20029;-79
2023/08/16 13:01:01;;;;;;;5.40;3.43;;;;;;;;;;5031042;28;20096;-79
2023/08/16 13:03:26;;;;;;;5.60;3.00;;;;;;;;;;5031915;28;20033;-78
2023/08/16 13:05:51;;;;;;;4.63;3.30;;;;;;;;;;5010859;28;20124;-78
2023/08/16 13:08:16;;;;;;;5.40;3.20;;;;;;;;;;5029623;28;20075;-79
2023/08/16 13:10:41;;;;;;;5.10;3.40;;;;;;;;;;5009748;28;20295;-79
2023/08/16 13:13:07;;;;;;;5.27;3.80;;;;;;;;;;5035177;28;20300;-78
2023/08/16 13:15:33;;;;;;;4.73;3.90;;;;;;;;;;5030488;28;20033;-79
2023/08/16 13:17:58;;;;;;;4.05;2.90;;;;;;;;;;5032088;28;20366;-79
2023/08/16 13:20:25;;;;;;;5.80;3.90;;;;;;;;;;5034444;28;20037;-79
2023/08/16 13:22:50;;;;;;;5.05;4.55;;;;;;;;;;5034787;28;20117;-79
2023/08/16 13:25:15;;;;;;;4.47;3.63;;;;;;;;;;5031531;28;20164;-78
2023/08/16 13:27:41;;;;;;;3.83;2.73;;;;;;;;;;5027116;28;20062;-76
2023/08/16 13:30:06;;;;;;;4.20;2.50;;;;;;;;;;5023664;28;20065;-76
2023/08/16 13:32:32;;;;;;;3.70;2.60;;;;;;;;;;5030536;28;20037;-76
2023/08/16 13:34:58;;;;;;;5.70;2.65;;;;;;;;;;5023911;28;20076;-76
2023/08/16 13:37:23;;;;;;;4.13;3.03;;;;;;;;;;4987685;28;20034;-76
2023/08/16 13:39:48;;;;;;;4.40;2.30;;;;;;;;;;5021032;28;20372;-76
2023/08/16 13:42:13;;;;;;;3.23;2.30;;;;;;;;;;5007357;28;20036;-77
2023/08/16 13:44:41;;;;;;;3.90;2.57;;;;;;;;;;5026390;28;20159;-76
2023/08/16 13:47:06;;;;;;;4.75;2.72;;;;;;;;;;5026732;28;20033;-76
2023/08/16 13:49:31;;;;;;;4.68;2.55;;;;;;;;;;5023937;28;20381;-76
2023/08/16 13:51:57;;;;;;;3.97;2.40;;;;;;;;;;5027158;28;20014;-76
2023/08/16 13:54:22;;;;;;;5.50;2.77;;;;;;;;;;5023783;28;20288;-76
2023/08/16 13:56:47;;;;;;;3.47;2.58;;;;;;;;;;5024324;28;20075;-76
2023/08/16 13:59:13;;;;;;;3.75;2.50;;;;;;;;;;5019311;28;20465;-76
2023/08/16 14:01:38;;;;;;;3.90;2.78;;;;;;;;;;5028373;28;20048;-76
2023/08/16 14:04:03;;;;;;;3.83;2.83;;;;;;;;;;5025723;28;20033;-75
2023/08/16 14:06:29;;;;;;;3.85;2.63;;;;;;;;;;5019897;28;20048;-76
2023/08/16 14:08:54;;;;;;;3.93;2.77;;;;;;;;;;5008250;28;20026;-76
2023/08/16 14:11:19;;;;;;;4.57;2.73;;;;;;;;;;5021200;28;20038;-75
2023/08/16 14:13:45;;;;;;;3.60;2.80;;;;;;;;;;5025166;28;20033;-76
2023/08/16 14:16:10;;;;;;;5.13;2.90;;;;;;;;;;5024936;28;20021;-76
2023/08/16 14:18:37;;;;;;;4.87;2.50;;;;;;;;;;5026232;28;20029;-76
2023/08/16 14:21:02;;;;;;;3.92;2.90;;;;;;;;;;5022568;28;20488;-76
2023/08/16 14:23:27;;;;;;;3.60;2.50;;;;;;;;;;5019349;28;20065;-75
2023/08/16 14:25:53;;;;;;;4.13;2.67;;;;;;;;;;5028516;28;20439;-76
2023/08/16 14:28:18;;;;;;;4.20;3.17;;;;;;;;;;5024054;28;20505;-76
2023/08/16 14:30:46;;;;;;;4.03;2.65;;;;;;;;;;5022526;28;20476;-76
2023/08/16 14:33:12;;;;;;;3.85;2.70;;;;;;;;;;5002197;28;20496;-76
2023/08/16 14:35:38;;;;;;;3.45;2.70;;;;;;;;;;5004474;28;20038;-76